createdAt,value
2022-07-31T00:00:44.798Z,17.96
2022-07-31T00:01:47.052Z,17.88
2022-07-31T00:02:49.524Z,18.05
2022-07-31T00:03:54.306Z,17.92
2022-07-31T00:04:58.059Z,18.05
2022-07-31T00:06:01.834Z,18.00
2022-07-31T00:07:04.422Z,17.96
2022-07-31T00:08:07.079Z,17.76
2022-07-31T00:09:48.821Z,17.95
2022-07-31T00:10:31.991Z,17.69
2022-07-31T00:11:34.115Z,17.81
2022-07-31T00:12:38.453Z,17.72
2022-07-31T00:13:57.690Z,17.62
2022-07-31T00:15:07.163Z,17.56
2022-07-31T00:16:10.794Z,17.38
2022-07-31T00:17:12.939Z,17.31
2022-07-31T00:18:15.417Z,17.23
2022-07-31T00:19:18.398Z,17.28
2022-07-31T00:20:21.805Z,17.22
2022-07-31T00:21:24.796Z,17.18
2022-07-31T00:22:26.930Z,17.20
2022-07-31T00:23:31.348Z,17.15
2022-07-31T00:24:35.042Z,17.10
2022-07-31T00:25:37.609Z,17.09
2022-07-31T00:26:41.429Z,17.03
2022-07-31T00:27:45.600Z,16.99
2022-07-31T00:28:48.417Z,16.97
2022-07-31T00:29:52.193Z,16.94
2022-07-31T00:30:55.456Z,16.99
2022-07-31T00:31:57.787Z,16.93
2022-07-31T00:33:00.076Z,16.92
2022-07-31T00:34:02.459Z,17.06
2022-07-31T00:35:04.999Z,17.22
2022-07-31T00:36:07.475Z,17.04
2022-07-31T00:37:10.311Z,16.99
2022-07-31T00:38:27.945Z,16.91
2022-07-31T00:39:31.331Z,16.83
2022-07-31T00:40:33.507Z,16.73
2022-07-31T00:41:44.936Z,16.75
2022-07-31T00:42:47.059Z,16.78
2022-07-31T00:43:49.118Z,16.75
2022-07-31T00:44:52.476Z,16.72
2022-07-31T00:45:59.047Z,16.80
2022-07-31T00:47:04.836Z,16.77
2022-07-31T00:48:07.350Z,16.74
2022-07-31T00:49:10.764Z,16.64
2022-07-31T00:50:13.666Z,16.59
2022-07-31T00:51:17.188Z,16.67
2022-07-31T00:52:23.754Z,16.85
2022-07-31T00:53:25.899Z,16.76
2022-07-31T00:54:28.009Z,16.76
2022-07-31T00:55:31.985Z,16.82
2022-07-31T00:56:53.378Z,16.76
2022-07-31T00:57:55.639Z,16.70
2022-07-31T00:58:57.773Z,16.68
2022-07-31T01:00:01.434Z,16.64
2022-07-31T01:01:07.116Z,16.62
2022-07-31T01:02:10.638Z,16.55
2022-07-31T01:03:13.836Z,16.53
2022-07-31T01:04:19.856Z,16.54
2022-07-31T01:05:23.852Z,16.52
2022-07-31T01:06:27.424Z,16.52
2022-07-31T01:07:30.115Z,16.45
2022-07-31T01:08:32.635Z,16.44
2022-07-31T01:09:34.909Z,16.43
2022-07-31T01:10:49.362Z,16.54
2022-07-31T01:12:01.580Z,16.51
2022-07-31T01:13:11.741Z,16.44
2022-07-31T01:14:15.689Z,16.37
2022-07-31T01:15:19.609Z,16.35
2022-07-31T01:16:24.935Z,16.35
2022-07-31T01:17:31.552Z,16.39
2022-07-31T01:18:37.135Z,16.34
2022-07-31T01:19:49.123Z,16.35
2022-07-31T01:20:55.779Z,16.36
2022-07-31T01:22:33.183Z,16.42
2022-07-31T01:23:54.783Z,16.39
2022-07-31T01:25:59.118Z,16.40
2022-07-31T01:27:33.605Z,16.29
2022-07-31T01:29:10.127Z,16.41
2022-07-31T01:30:16.479Z,16.41
2022-07-31T01:31:27.077Z,16.49
2022-07-31T01:32:38.519Z,16.43
2022-07-31T01:33:50.367Z,16.42
2022-07-31T01:34:58.054Z,16.39
2022-07-31T01:36:09.409Z,16.38
2022-07-31T01:37:21.289Z,16.54
2022-07-31T01:38:42.486Z,16.84
2022-07-31T01:39:54.912Z,17.08
2022-07-31T01:41:05.098Z,17.14
2022-07-31T01:42:11.219Z,17.21
2022-07-31T01:43:19.619Z,17.20
2022-07-31T01:44:25.689Z,17.27
2022-07-31T01:45:30.462Z,17.38
2022-07-31T01:46:37.514Z,17.49
2022-07-31T01:47:47.488Z,17.32
2022-07-31T01:48:57.951Z,17.29
2022-07-31T01:50:02.967Z,17.14
2022-07-31T01:51:09.308Z,17.23
2022-07-31T01:52:13.623Z,16.95
2022-07-31T01:53:20.627Z,16.96
2022-07-31T01:54:25.361Z,16.83
2022-07-31T01:56:02.106Z,16.69
2022-07-31T01:56:59.686Z,16.56
2022-07-31T01:58:02.775Z,16.64
2022-07-31T01:59:20.135Z,16.58
2022-07-31T02:00:45.303Z,16.54
2022-07-31T02:01:50.794Z,16.53
2022-07-31T02:02:55.948Z,16.57
2022-07-31T02:04:00.710Z,16.60
2022-07-31T02:05:10.087Z,16.60
2022-07-31T02:06:15.444Z,16.61
2022-07-31T02:07:18.709Z,16.58
2022-07-31T02:08:23.287Z,16.49
2022-07-31T02:09:29.552Z,16.47
2022-07-31T02:10:32.438Z,16.43
2022-07-31T02:11:53.690Z,16.48
2022-07-31T02:13:01.050Z,16.44
2022-07-31T02:14:06.715Z,16.44
2022-07-31T02:15:12.574Z,16.38
2022-07-31T02:16:19.680Z,16.43
2022-07-31T02:17:26.620Z,16.45
2022-07-31T02:18:54.373Z,16.39
2022-07-31T02:20:02.083Z,16.45
2022-07-31T02:21:07.452Z,16.44
2022-07-31T02:22:11.090Z,16.43
2022-07-31T02:23:13.935Z,16.56
2022-07-31T02:24:17.989Z,16.71
2022-07-31T02:25:21.083Z,16.72
2022-07-31T02:26:25.961Z,16.88
2022-07-31T02:27:54.067Z,16.91
2022-07-31T02:28:54.758Z,17.08
2022-07-31T02:29:59.708Z,17.04
2022-07-31T02:31:03.249Z,16.94
2022-07-31T02:32:07.693Z,16.97
2022-07-31T02:33:24.694Z,17.09
2022-07-31T02:34:30.301Z,17.06
2022-07-31T02:35:36.370Z,17.15
2022-07-31T02:36:39.270Z,17.35
2022-07-31T02:37:43.197Z,17.99
2022-07-31T02:38:46.544Z,18.98
2022-07-31T02:39:54.391Z,19.88
2022-07-31T02:41:03.962Z,20.31
2022-07-31T02:42:07.089Z,20.83
2022-07-31T02:43:11.919Z,21.38
2022-07-31T02:44:15.103Z,21.77
2022-07-31T02:45:18.711Z,22.28
2022-07-31T02:46:22.128Z,22.45
2022-07-31T02:47:25.641Z,22.71
2022-07-31T02:48:29.599Z,23.12
2022-07-31T02:49:37.811Z,23.35
2022-07-31T02:50:43.278Z,23.63
2022-07-31T02:51:46.004Z,24.05
2022-07-31T02:52:48.477Z,24.30
2022-07-31T02:53:51.611Z,24.61
2022-07-31T02:54:56.276Z,24.50
2022-07-31T02:56:04.633Z,24.51
2022-07-31T02:57:11.084Z,24.69
2022-07-31T02:58:13.468Z,24.81
2022-07-31T02:59:16.026Z,25.13
2022-07-31T03:00:33.574Z,25.24
2022-07-31T03:01:36.413Z,25.43
2022-07-31T03:02:39.199Z,25.29
2022-07-31T03:03:41.383Z,25.42
2022-07-31T03:04:44.237Z,25.77
2022-07-31T03:05:46.289Z,26.05
2022-07-31T03:06:51.292Z,26.27
2022-07-31T03:07:53.764Z,26.11
2022-07-31T03:08:55.926Z,26.66
2022-07-31T03:09:59.600Z,26.42
2022-07-31T03:11:14.756Z,26.85
2022-07-31T03:12:16.848Z,27.15
2022-07-31T03:13:24.709Z,26.82
2022-07-31T03:14:32.721Z,27.37
2022-07-31T03:15:36.557Z,27.49
2022-07-31T03:16:41.430Z,27.36
2022-07-31T03:17:45.776Z,27.18
2022-07-31T03:18:54.292Z,27.60
2022-07-31T03:19:57.805Z,27.50
2022-07-31T03:21:00.173Z,27.55
2022-07-31T03:22:02.955Z,27.02
2022-07-31T03:23:05.723Z,25.90
2022-07-31T03:24:13.018Z,25.04
2022-07-31T03:25:21.586Z,23.98
2022-07-31T03:26:25.371Z,23.74
2022-07-31T03:27:27.595Z,23.34
2022-07-31T03:28:29.831Z,22.70
2022-07-31T03:29:43.431Z,22.49
2022-07-31T03:30:50.741Z,21.99
2022-07-31T03:31:57.296Z,21.78
2022-07-31T03:33:02.986Z,21.60
2022-07-31T03:34:06.966Z,21.49
2022-07-31T03:35:09.171Z,21.22
2022-07-31T03:36:11.305Z,21.36
2022-07-31T03:37:14.591Z,21.15
2022-07-31T03:38:40.597Z,21.21
2022-07-31T03:39:41.105Z,20.93
2022-07-31T03:40:47.752Z,21.06
2022-07-31T03:41:51.299Z,20.83
2022-07-31T03:42:56.484Z,20.87
2022-07-31T03:43:59.234Z,20.82
2022-07-31T03:45:02.909Z,20.61
2022-07-31T03:46:08.758Z,20.50
2022-07-31T03:47:10.942Z,20.54
2022-07-31T03:48:15.158Z,20.69
2022-07-31T03:49:17.704Z,20.70
2022-07-31T03:50:20.206Z,20.55
2022-07-31T03:51:22.415Z,20.52
2022-07-31T03:52:25.250Z,20.72
2022-07-31T03:53:31.671Z,20.92
2022-07-31T03:54:34.017Z,21.10
2022-07-31T03:55:47.036Z,21.62
2022-07-31T03:56:52.675Z,22.71
2022-07-31T03:57:56.297Z,23.74
2022-07-31T03:58:58.957Z,24.94
2022-07-31T04:00:04.198Z,25.33
2022-07-31T04:01:10.359Z,25.96
2022-07-31T04:02:15.022Z,26.45
2022-07-31T04:03:24.372Z,26.93
2022-07-31T04:04:49.192Z,27.41
2022-07-31T04:05:51.452Z,27.99
2022-07-31T04:06:53.936Z,27.62
2022-07-31T04:07:56.095Z,28.14
2022-07-31T04:08:58.380Z,28.88
2022-07-31T04:10:02.937Z,28.26
2022-07-31T04:11:05.997Z,28.86
2022-07-31T04:12:08.375Z,29.12
2022-07-31T04:13:10.713Z,29.78
2022-07-31T04:14:13.095Z,29.80
2022-07-31T04:15:15.287Z,30.37
2022-07-31T04:16:19.658Z,30.20
2022-07-31T04:17:22.409Z,30.58
2022-07-31T04:18:24.533Z,30.12
2022-07-31T04:19:26.839Z,30.15
2022-07-31T04:20:29.104Z,30.17
2022-07-31T04:21:31.618Z,30.11
2022-07-31T04:22:33.756Z,30.38
2022-07-31T04:23:38.241Z,30.19
2022-07-31T04:24:58.960Z,29.79
2022-07-31T04:26:06.704Z,30.31
2022-07-31T04:27:17.370Z,31.35
2022-07-31T04:28:19.850Z,31.37
2022-07-31T04:29:21.907Z,31.12
2022-07-31T04:30:24.762Z,32.26
2022-07-31T04:31:28.501Z,32.43
2022-07-31T04:32:30.816Z,32.41
2022-07-31T04:33:46.539Z,32.61
2022-07-31T04:34:53.781Z,32.33
2022-07-31T04:35:55.943Z,31.33
2022-07-31T04:36:59.103Z,31.49
2022-07-31T04:38:01.272Z,31.68
2022-07-31T04:39:07.651Z,32.91
2022-07-31T04:40:11.183Z,33.49
2022-07-31T04:41:13.373Z,32.83
2022-07-31T04:42:15.978Z,33.67
2022-07-31T04:43:18.145Z,32.69
2022-07-31T04:44:20.971Z,32.94
2022-07-31T04:45:33.044Z,33.59
2022-07-31T04:46:35.201Z,33.40
2022-07-31T04:47:38.675Z,32.91
2022-07-31T04:48:41.335Z,32.53
2022-07-31T04:49:46.046Z,32.52
2022-07-31T04:50:51.262Z,31.97
2022-07-31T04:51:53.484Z,32.16
2022-07-31T04:52:56.996Z,31.87
2022-07-31T04:54:03.099Z,32.94
2022-07-31T04:55:05.571Z,32.74
2022-07-31T04:56:26.235Z,33.16
2022-07-31T04:57:28.488Z,33.12
2022-07-31T04:58:30.631Z,34.38
2022-07-31T05:00:00.678Z,33.72
2022-07-31T05:00:55.720Z,34.75
2022-07-31T05:01:58.765Z,34.67
2022-07-31T05:03:01.936Z,35.26
2022-07-31T05:04:05.465Z,35.63
2022-07-31T05:05:08.012Z,35.03
2022-07-31T05:06:16.094Z,35.46
2022-07-31T05:07:18.153Z,34.94
2022-07-31T05:08:20.369Z,34.66
2022-07-31T05:09:25.405Z,34.41
2022-07-31T05:10:50.355Z,33.64
2022-07-31T05:11:53.943Z,34.80
2022-07-31T05:12:57.291Z,34.40
2022-07-31T05:14:01.838Z,34.48
2022-07-31T05:15:05.456Z,34.64
2022-07-31T05:16:12.096Z,35.18
2022-07-31T05:17:15.551Z,36.40
2022-07-31T05:18:28.070Z,35.57
2022-07-31T05:20:09.373Z,37.13
2022-07-31T05:21:53.027Z,36.23
2022-07-31T05:23:16.439Z,37.42
2022-07-31T05:24:33.069Z,36.51
2022-07-31T05:25:43.866Z,36.85
2022-07-31T05:26:45.930Z,37.69
2022-07-31T05:27:50.865Z,38.57
2022-07-31T05:28:58.279Z,37.01
2022-07-31T05:30:01.394Z,36.37
2022-07-31T05:31:06.473Z,35.96
2022-07-31T05:32:08.590Z,37.16
2022-07-31T05:33:12.077Z,36.25
2022-07-31T05:34:16.092Z,36.65
2022-07-31T05:35:18.389Z,37.37
2022-07-31T05:36:21.488Z,37.71
2022-07-31T05:37:23.650Z,36.58
2022-07-31T05:38:26.575Z,37.08
2022-07-31T05:39:47.126Z,36.79
2022-07-31T05:41:07.696Z,37.47
2022-07-31T05:42:30.010Z,34.34
2022-07-31T05:43:52.348Z,34.77
2022-07-31T05:45:00.092Z,36.14
2022-07-31T05:46:02.997Z,36.27
2022-07-31T05:47:08.070Z,37.34
2022-07-31T05:48:10.353Z,37.98
2022-07-31T05:49:12.493Z,37.36
2022-07-31T05:50:16.993Z,35.89
2022-07-31T05:51:19.063Z,35.55
2022-07-31T05:52:22.770Z,34.43
2022-07-31T05:53:45.847Z,36.03
2022-07-31T05:55:07.219Z,37.32
2022-07-31T05:56:32.280Z,36.07
2022-07-31T05:57:35.794Z,35.24
2022-07-31T05:58:44.185Z,35.96
2022-07-31T05:59:51.664Z,34.90
2022-07-31T06:00:56.689Z,36.66
2022-07-31T06:01:59.521Z,37.82
2022-07-31T06:03:02.598Z,37.25
2022-07-31T06:04:27.669Z,35.93
2022-07-31T06:05:30.276Z,36.66
2022-07-31T06:06:32.373Z,36.31
2022-07-31T06:07:35.288Z,36.54
2022-07-31T06:08:38.203Z,36.14
2022-07-31T06:09:40.409Z,36.59
2022-07-31T06:10:42.587Z,37.32
2022-07-31T06:11:44.705Z,37.22
2022-07-31T06:12:47.671Z,37.84
2022-07-31T06:13:49.754Z,38.18
2022-07-31T06:15:01.313Z,37.21
2022-07-31T06:16:13.937Z,37.43
2022-07-31T06:17:16.511Z,37.56
2022-07-31T06:18:21.193Z,37.45
2022-07-31T06:19:24.333Z,37.37
2022-07-31T06:20:27.869Z,38.40
2022-07-31T06:21:30.963Z,39.09
2022-07-31T06:22:33.521Z,38.52
2022-07-31T06:23:35.848Z,35.94
2022-07-31T06:24:49.814Z,36.19
2022-07-31T06:25:53.492Z,37.88
2022-07-31T06:27:00.483Z,37.07
2022-07-31T06:28:05.330Z,35.05
2022-07-31T06:29:13.310Z,34.47
2022-07-31T06:30:15.826Z,33.98
2022-07-31T06:31:21.963Z,36.11
2022-07-31T06:32:26.649Z,34.89
2022-07-31T06:33:37.755Z,34.21
2022-07-31T06:34:41.042Z,35.96
2022-07-31T06:35:43.609Z,36.32
2022-07-31T06:37:26.422Z,37.13
2022-07-31T06:38:31.008Z,36.36
2022-07-31T06:39:56.638Z,36.59
2022-07-31T06:41:35.980Z,34.62
2022-07-31T06:42:58.449Z,33.42
2022-07-31T06:44:20.255Z,33.62
2022-07-31T06:45:52.223Z,32.88
2022-07-31T06:47:32.783Z,32.00
2022-07-31T06:48:34.764Z,31.67
2022-07-31T06:49:43.312Z,31.80
2022-07-31T06:50:45.563Z,31.51
2022-07-31T06:52:06.629Z,31.41
2022-07-31T06:53:09.041Z,30.87
2022-07-31T06:54:12.536Z,31.06
2022-07-31T06:55:14.623Z,30.65
2022-07-31T06:56:16.746Z,31.90
2022-07-31T06:57:19.222Z,31.96
2022-07-31T06:58:21.316Z,31.02
2022-07-31T06:59:39.701Z,30.62
2022-07-31T07:00:43.330Z,30.96
2022-07-31T07:01:45.535Z,30.89
2022-07-31T07:02:47.858Z,30.55
2022-07-31T07:03:50.616Z,30.66
2022-07-31T07:04:57.347Z,31.00
2022-07-31T07:06:09.640Z,32.34
2022-07-31T07:07:12.161Z,33.29
2022-07-31T07:08:14.681Z,32.89
2022-07-31T07:09:18.357Z,33.71
2022-07-31T07:10:20.758Z,34.04
2022-07-31T07:11:34.883Z,34.54
2022-07-31T07:12:36.958Z,34.14
2022-07-31T07:13:44.982Z,33.99
2022-07-31T07:14:47.806Z,34.43
2022-07-31T07:15:50.097Z,34.81
2022-07-31T07:16:52.355Z,35.05
2022-07-31T07:17:55.531Z,34.86
2022-07-31T07:19:08.405Z,33.53
2022-07-31T07:20:10.781Z,33.08
2022-07-31T07:21:15.697Z,32.41
2022-07-31T07:22:17.896Z,33.48
2022-07-31T07:23:33.672Z,33.47
2022-07-31T07:24:48.929Z,33.22
2022-07-31T07:25:56.699Z,32.94
2022-07-31T07:27:00.039Z,31.96
2022-07-31T07:28:02.131Z,31.09
2022-07-31T07:29:04.601Z,29.96
2022-07-31T07:30:07.678Z,29.63
2022-07-31T07:31:09.949Z,29.00
2022-07-31T07:32:13.451Z,28.49
2022-07-31T07:33:40.481Z,28.44
2022-07-31T07:34:40.541Z,29.02
2022-07-31T07:35:50.210Z,29.41
2022-07-31T07:36:54.269Z,29.07
2022-07-31T07:37:59.793Z,29.94
2022-07-31T07:39:02.636Z,29.95
2022-07-31T07:40:08.338Z,29.75
2022-07-31T07:41:10.893Z,29.31
2022-07-31T07:42:13.039Z,29.08
2022-07-31T07:43:15.345Z,28.37
2022-07-31T07:44:17.670Z,27.90
2022-07-31T07:45:20.100Z,27.22
2022-07-31T07:46:26.267Z,27.26
2022-07-31T07:48:05.100Z,27.11
2022-07-31T07:48:55.900Z,26.87
2022-07-31T07:50:21.202Z,28.78
2022-07-31T07:51:58.389Z,28.80
2022-07-31T07:53:14.657Z,29.34
2022-07-31T07:54:35.278Z,30.32
2022-07-31T07:55:56.125Z,30.71
2022-07-31T07:57:39.228Z,30.90
2022-07-31T07:59:00.026Z,30.22
2022-07-31T08:00:21.208Z,29.19
2022-07-31T08:01:30.506Z,28.32
2022-07-31T08:02:45.019Z,27.59
2022-07-31T08:04:07.882Z,27.03
2022-07-31T08:05:10.347Z,26.76
2022-07-31T08:06:14.144Z,26.70
2022-07-31T08:07:16.417Z,27.59
2022-07-31T08:08:18.643Z,27.71
2022-07-31T08:09:43.281Z,27.32
2022-07-31T08:10:45.384Z,27.08
2022-07-31T08:11:53.991Z,26.60
2022-07-31T08:13:14.892Z,27.18
2022-07-31T08:14:42.751Z,27.03
2022-07-31T08:16:10.468Z,26.56
2022-07-31T08:17:33.095Z,26.09
2022-07-31T08:18:35.938Z,26.15
2022-07-31T08:19:38.096Z,25.88
2022-07-31T08:20:42.826Z,25.78
2022-07-31T08:21:46.244Z,25.60
2022-07-31T08:22:48.396Z,25.67
2022-07-31T08:23:52.955Z,25.78
2022-07-31T08:24:57.224Z,25.53
2022-07-31T08:25:59.504Z,25.67
2022-07-31T08:27:21.662Z,25.72
2022-07-31T08:28:27.908Z,25.71
2022-07-31T08:29:30.645Z,25.85
2022-07-31T08:30:48.908Z,26.19
2022-07-31T08:31:55.081Z,27.74
2022-07-31T08:33:22.523Z,28.55
2022-07-31T08:34:32.205Z,28.38
2022-07-31T08:35:39.210Z,28.84
2022-07-31T08:36:42.044Z,28.57
2022-07-31T08:37:51.677Z,27.71
2022-07-31T08:39:21.077Z,27.61
2022-07-31T08:40:42.993Z,27.31
2022-07-31T08:41:46.348Z,26.98
2022-07-31T08:42:51.381Z,26.66
2022-07-31T08:44:03.288Z,26.84
2022-07-31T08:45:09.397Z,26.54
2022-07-31T08:46:18.896Z,26.38
2022-07-31T08:47:25.824Z,26.41
2022-07-31T08:48:33.218Z,26.39
2022-07-31T08:49:42.132Z,26.42
2022-07-31T08:50:45.689Z,26.00
2022-07-31T08:52:16.920Z,26.04
2022-07-31T08:53:36.808Z,26.20
2022-07-31T08:54:51.455Z,25.91
2022-07-31T08:55:56.444Z,26.17
2022-07-31T08:57:04.934Z,26.28
2022-07-31T08:58:15.819Z,25.79
2022-07-31T08:59:18.757Z,25.68
2022-07-31T09:00:23.045Z,25.52
2022-07-31T09:01:25.264Z,25.65
2022-07-31T09:02:27.701Z,25.71
2022-07-31T09:03:47.834Z,25.72
2022-07-31T09:04:52.759Z,25.48
2022-07-31T09:05:56.350Z,25.51
2022-07-31T09:07:00.860Z,25.47
2022-07-31T09:08:06.569Z,25.46
2022-07-31T09:09:19.277Z,25.54
2022-07-31T09:10:27.451Z,25.60
2022-07-31T09:11:29.913Z,25.45
2022-07-31T09:12:50.400Z,25.31
2022-07-31T09:14:03.473Z,25.89
2022-07-31T09:15:33.080Z,26.77
2022-07-31T09:16:49.261Z,27.34
2022-07-31T09:17:56.207Z,27.25
2022-07-31T09:19:53.443Z,26.80
2022-07-31T09:20:29.944Z,26.90
2022-07-31T09:21:45.646Z,27.28
2022-07-31T09:22:52.541Z,27.35
2022-07-31T09:23:55.015Z,27.54
2022-07-31T09:25:16.426Z,28.08
2022-07-31T09:26:18.831Z,28.61
2022-07-31T09:27:28.597Z,28.36
2022-07-31T09:28:38.920Z,28.92
2022-07-31T09:29:42.876Z,29.07
2022-07-31T09:30:58.488Z,29.09
2022-07-31T09:32:20.937Z,29.07
2022-07-31T09:33:45.920Z,29.00
2022-07-31T09:35:14.525Z,28.72
2022-07-31T09:36:24.620Z,28.87
2022-07-31T09:37:34.284Z,28.89
2022-07-31T09:39:04.159Z,28.86
2022-07-31T09:40:09.614Z,28.66
2022-07-31T09:41:58.145Z,28.67
2022-07-31T09:43:31.355Z,28.60
2022-07-31T09:44:45.677Z,28.39
2022-07-31T09:45:58.933Z,28.41
2022-07-31T09:47:01.851Z,28.37
2022-07-31T09:48:14.441Z,28.51
2022-07-31T09:49:30.093Z,28.55
2022-07-31T09:50:32.512Z,28.39
2022-07-31T09:51:47.099Z,28.18
2022-07-31T09:53:01.226Z,28.10
2022-07-31T09:54:06.940Z,28.33
2022-07-31T09:55:29.017Z,28.48
2022-07-31T09:56:40.289Z,28.50
2022-07-31T09:58:00.177Z,28.77
2022-07-31T09:59:12.030Z,28.76
2022-07-31T10:00:17.317Z,28.86
2022-07-31T10:01:21.668Z,28.89
2022-07-31T10:02:27.764Z,28.80
2022-07-31T10:03:33.120Z,28.64
2022-07-31T10:04:39.394Z,28.53
2022-07-31T10:05:47.046Z,28.45
2022-07-31T10:06:52.512Z,28.52
2022-07-31T10:08:00.994Z,28.60
2022-07-31T10:09:21.967Z,28.61
2022-07-31T10:10:44.329Z,28.32
2022-07-31T10:12:12.447Z,28.37
2022-07-31T10:13:21.223Z,28.79
2022-07-31T10:14:29.170Z,28.85
2022-07-31T10:15:35.998Z,28.73
2022-07-31T10:17:01.553Z,28.73
2022-07-31T10:18:44.600Z,28.60
2022-07-31T10:20:24.241Z,28.26
2022-07-31T10:22:03.662Z,27.99
2022-07-31T10:23:20.006Z,28.28
2022-07-31T10:24:28.506Z,28.45
2022-07-31T10:25:39.351Z,28.36
2022-07-31T10:27:01.132Z,28.33
2022-07-31T10:28:07.506Z,28.22
2022-07-31T10:29:10.465Z,27.94
2022-07-31T10:30:13.659Z,27.66
2022-07-31T10:31:20.918Z,27.66
2022-07-31T10:32:26.063Z,27.84
2022-07-31T10:33:52.671Z,27.42
2022-07-31T10:35:43.373Z,27.22
2022-07-31T10:37:23.376Z,27.38
2022-07-31T10:38:53.854Z,27.19
2022-07-31T10:40:34.213Z,27.28
2022-07-31T10:41:52.476Z,27.23
2022-07-31T10:43:17.024Z,27.24
2022-07-31T10:44:38.788Z,27.07
2022-07-31T10:45:56.153Z,26.99
2022-07-31T10:47:17.991Z,26.91
2022-07-31T10:48:37.982Z,26.57
2022-07-31T10:50:03.812Z,26.59
2022-07-31T10:51:16.031Z,26.69
2022-07-31T10:52:40.193Z,26.49
2022-07-31T10:53:59.639Z,26.11
2022-07-31T10:55:25.379Z,25.99
2022-07-31T10:56:48.445Z,25.92
2022-07-31T10:58:25.159Z,25.63
2022-07-31T10:59:30.449Z,25.66
2022-07-31T11:01:09.843Z,25.64
2022-07-31T11:02:34.050Z,25.83
2022-07-31T11:04:05.608Z,26.13
2022-07-31T11:05:24.702Z,26.05
2022-07-31T11:06:48.813Z,26.29
2022-07-31T11:08:11.286Z,26.24
2022-07-31T11:09:30.410Z,26.15
2022-07-31T11:10:56.274Z,26.12
2022-07-31T11:12:18.952Z,26.08
2022-07-31T11:13:51.374Z,25.91
2022-07-31T11:15:24.593Z,26.22
2022-07-31T11:16:58.973Z,25.94
2022-07-31T11:18:27.554Z,26.13
2022-07-31T11:19:43.690Z,25.90
2022-07-31T11:20:50.019Z,25.91
2022-07-31T11:21:57.450Z,25.92
2022-07-31T11:23:03.524Z,25.62
2022-07-31T11:24:16.042Z,25.59
2022-07-31T11:25:18.960Z,25.76
2022-07-31T11:26:33.508Z,25.83
2022-07-31T11:27:43.379Z,25.92
2022-07-31T11:28:45.636Z,25.94
2022-07-31T11:30:01.280Z,25.95
2022-07-31T11:31:07.452Z,25.77
2022-07-31T11:32:25.350Z,25.87
2022-07-31T11:33:43.071Z,25.72
2022-07-31T11:34:45.560Z,25.56
2022-07-31T11:35:47.659Z,25.71
2022-07-31T11:36:51.666Z,25.56
2022-07-31T11:37:58.015Z,25.43
2022-07-31T11:39:01.062Z,25.33
2022-07-31T11:40:07.057Z,25.34
2022-07-31T11:41:10.674Z,25.40
2022-07-31T11:42:17.669Z,25.43
2022-07-31T11:43:27.237Z,25.41
2022-07-31T11:44:29.723Z,25.22
2022-07-31T11:45:33.441Z,25.17
2022-07-31T11:46:38.209Z,25.17
2022-07-31T11:48:13.424Z,25.38
2022-07-31T11:49:21.640Z,25.46
2022-07-31T11:50:44.947Z,25.40
2022-07-31T11:51:48.582Z,25.33
2022-07-31T11:52:50.791Z,25.36
2022-07-31T11:53:57.575Z,25.30
2022-07-31T11:55:14.465Z,25.48
2022-07-31T11:56:19.507Z,25.63
2022-07-31T11:57:22.094Z,25.73
2022-07-31T11:58:26.746Z,25.51
2022-07-31T11:59:45.220Z,25.67
2022-07-31T12:00:53.096Z,25.72
2022-07-31T12:02:10.432Z,25.77
2022-07-31T12:03:15.180Z,25.64
2022-07-31T12:04:19.391Z,25.82
2022-07-31T12:05:36.084Z,25.77
2022-07-31T12:06:41.457Z,25.65
2022-07-31T12:07:47.210Z,25.69
2022-07-31T12:08:50.138Z,25.75
2022-07-31T12:10:02.806Z,25.51
2022-07-31T12:11:09.622Z,25.52
2022-07-31T12:12:14.321Z,25.45
2022-07-31T12:13:18.649Z,25.49
2022-07-31T12:14:31.120Z,25.42
2022-07-31T12:15:33.430Z,25.43
2022-07-31T12:16:44.523Z,25.34
2022-07-31T12:17:47.452Z,25.32
2022-07-31T12:18:53.883Z,25.21
2022-07-31T12:20:06.928Z,25.13
2022-07-31T12:21:09.418Z,25.20
2022-07-31T12:22:21.537Z,25.23
2022-07-31T12:23:38.527Z,25.21
2022-07-31T12:24:43.463Z,25.48
2022-07-31T12:25:48.749Z,25.69
2022-07-31T12:26:54.011Z,25.82
2022-07-31T12:27:56.111Z,25.96
2022-07-31T12:28:59.885Z,26.03
2022-07-31T12:30:13.530Z,26.03
2022-07-31T12:31:15.604Z,25.82
2022-07-31T12:32:25.918Z,25.95
2022-07-31T12:33:28.483Z,25.79
2022-07-31T12:34:36.403Z,25.89
2022-07-31T12:35:56.024Z,25.95
2022-07-31T12:37:06.980Z,26.08
2022-07-31T12:38:36.886Z,26.10
2022-07-31T12:39:54.050Z,26.18
2022-07-31T12:41:09.605Z,26.05
2022-07-31T12:42:30.477Z,26.11
2022-07-31T12:43:34.128Z,26.20
2022-07-31T12:44:48.460Z,26.25
2022-07-31T12:45:52.750Z,26.12
2022-07-31T12:46:54.925Z,26.09
2022-07-31T12:47:58.882Z,26.00
2022-07-31T12:49:01.191Z,26.02
2022-07-31T12:50:04.491Z,25.95
2022-07-31T12:51:06.916Z,26.14
2022-07-31T12:52:10.108Z,26.14
2022-07-31T12:53:12.140Z,25.98
2022-07-31T12:54:16.558Z,26.10
2022-07-31T12:55:19.740Z,26.11
2022-07-31T12:56:22.038Z,26.28
2022-07-31T12:57:24.773Z,26.34
2022-07-31T12:58:26.851Z,26.26
2022-07-31T12:59:29.243Z,26.08
2022-07-31T13:00:31.352Z,25.99
2022-07-31T13:01:34.621Z,26.05
2022-07-31T13:02:37.423Z,26.16
2022-07-31T13:03:46.345Z,26.25
2022-07-31T13:04:48.654Z,26.26
2022-07-31T13:05:52.282Z,26.20
2022-07-31T13:06:54.685Z,26.24
2022-07-31T13:07:57.418Z,26.25
2022-07-31T13:08:59.710Z,26.27
2022-07-31T13:10:20.864Z,26.25
2022-07-31T13:11:29.142Z,26.23
2022-07-31T13:12:31.225Z,26.32
2022-07-31T13:13:33.286Z,26.40
2022-07-31T13:14:35.338Z,26.30
2022-07-31T13:15:37.386Z,26.29
2022-07-31T13:16:39.487Z,26.31
2022-07-31T13:17:43.889Z,26.25
2022-07-31T13:18:52.183Z,26.20
2022-07-31T13:19:54.278Z,26.30
2022-07-31T13:20:56.383Z,26.38
2022-07-31T13:21:58.604Z,26.34
2022-07-31T13:23:02.379Z,26.36
2022-07-31T13:24:06.596Z,26.23
2022-07-31T13:25:09.285Z,26.22
2022-07-31T13:26:11.416Z,26.03
2022-07-31T13:27:13.423Z,25.86
2022-07-31T13:28:15.676Z,26.00
2022-07-31T13:29:18.069Z,25.92
2022-07-31T13:30:20.146Z,26.16
2022-07-31T13:31:22.289Z,26.21
2022-07-31T13:32:25.656Z,26.37
2022-07-31T13:33:28.437Z,26.04
2022-07-31T13:34:30.626Z,26.24
2022-07-31T13:35:32.901Z,26.04
2022-07-31T13:36:39.470Z,25.94
2022-07-31T13:37:43.178Z,25.92
2022-07-31T13:38:45.317Z,25.99
2022-07-31T13:39:47.328Z,26.03
2022-07-31T13:41:07.749Z,26.21
2022-07-31T13:42:10.074Z,26.08
2022-07-31T13:43:13.595Z,25.97
2022-07-31T13:44:16.153Z,25.94
2022-07-31T13:45:18.478Z,25.93
2022-07-31T13:46:22.114Z,25.89
2022-07-31T13:47:25.365Z,25.70
2022-07-31T13:48:49.138Z,25.92
2022-07-31T13:49:51.258Z,25.83
2022-07-31T13:50:53.316Z,25.84
2022-07-31T13:51:56.464Z,25.66
2022-07-31T13:53:01.881Z,25.89
2022-07-31T13:54:04.677Z,25.78
2022-07-31T13:55:12.406Z,25.99
2022-07-31T13:56:14.455Z,26.08
2022-07-31T13:57:36.597Z,26.09
2022-07-31T13:58:39.431Z,26.05
2022-07-31T13:59:41.444Z,25.89
2022-07-31T14:00:43.643Z,25.81
2022-07-31T14:02:03.620Z,25.71
2022-07-31T14:03:07.561Z,25.60
2022-07-31T14:04:12.828Z,25.80
2022-07-31T14:05:18.058Z,25.71
2022-07-31T14:06:22.220Z,25.82
2022-07-31T14:07:48.178Z,25.96
2022-07-31T14:08:49.756Z,25.88
2022-07-31T14:09:55.046Z,25.78
2022-07-31T14:10:58.174Z,25.78
2022-07-31T14:12:03.839Z,25.99
2022-07-31T14:13:07.079Z,25.95
2022-07-31T14:14:09.540Z,25.91
2022-07-31T14:15:11.559Z,26.04
2022-07-31T14:16:13.627Z,25.97
2022-07-31T14:17:17.216Z,25.75
2022-07-31T14:18:19.324Z,25.74
2022-07-31T14:19:21.357Z,25.74
2022-07-31T14:20:23.806Z,25.72
2022-07-31T14:21:25.810Z,25.67
2022-07-31T14:22:29.744Z,25.61
2022-07-31T14:23:34.117Z,25.62
2022-07-31T14:24:38.040Z,25.75
2022-07-31T14:25:41.669Z,25.66
2022-07-31T14:26:43.973Z,25.52
2022-07-31T14:27:50.392Z,25.48
2022-07-31T14:28:52.722Z,25.32
2022-07-31T14:29:55.424Z,25.32
2022-07-31T14:30:57.673Z,25.09
2022-07-31T14:31:59.946Z,25.23
2022-07-31T14:33:05.281Z,25.32
2022-07-31T14:34:07.614Z,25.06
2022-07-31T14:35:10.879Z,25.05
2022-07-31T14:36:21.230Z,24.97
2022-07-31T14:37:24.618Z,25.09
2022-07-31T14:38:29.160Z,25.06
2022-07-31T14:39:31.497Z,25.06
2022-07-31T14:40:33.690Z,25.07
2022-07-31T14:41:35.732Z,25.21
2022-07-31T14:42:38.046Z,25.22
2022-07-31T14:43:41.445Z,25.23
2022-07-31T14:44:43.716Z,25.20